Virgolandia, Brazil
Current Conditions -  °F | °C
As of 6:00 AM on Monday 20 Oct 2014 (Local Time) from SBLS Reporting Station
Broken Clouds Broken Clouds  
Wind Chill: 70°   Ceiling: 10000
Heat Index: 70°   Visibility: 4mi
Dew Point: 63°   Wind: 15mph
Humidity: 78%   Direction: 170°S
Pressure: 30.03"   Gusts: NA
Location:  18.48°S, 42.31°W
Report Text: SBLS 200900Z 17013KT 7000 FEW025 BKN100 21/17 Q1017 RETS
Loading
Personal Weather Stations






























Interactive Weather Map
Tropical Storm Tracking
New forecast layout! Learn more

10-Day Weather Forecast

Advertisements
Track Severe Weather on mobile